createdAt,value
2023-01-29T00:02:25.672Z,13.40
2023-01-29T00:04:58.720Z,12.95
2023-01-29T00:07:26.993Z,13.98
2023-01-29T00:09:56.479Z,14.93
2023-01-29T00:12:24.679Z,14.63
2023-01-29T00:14:52.647Z,13.95
2023-01-29T00:17:20.931Z,14.30
2023-01-29T00:19:49.150Z,12.93
2023-01-29T00:22:17.397Z,12.63
2023-01-29T00:24:45.953Z,12.95
2023-01-29T00:27:15.930Z,14.45
2023-01-29T00:29:44.213Z,13.63
2023-01-29T00:32:12.564Z,14.50
2023-01-29T00:34:40.871Z,12.48
2023-01-29T00:37:09.221Z,13.73
2023-01-29T00:39:47.942Z,12.32
2023-01-29T00:42:36.013Z,13.68
2023-01-29T00:45:04.440Z,13.32
2023-01-29T00:47:33.799Z,12.23
2023-01-29T00:50:02.703Z,12.07
2023-01-29T00:52:31.214Z,12.02
2023-01-29T00:55:01.036Z,12.32
2023-01-29T00:57:33.188Z,13.07
2023-01-29T01:00:01.843Z,13.30
2023-01-29T01:02:47.620Z,13.20
2023-01-29T01:05:18.904Z,12.45
2023-01-29T01:07:47.906Z,12.18
2023-01-29T01:10:22.512Z,11.57
2023-01-29T01:12:55.631Z,12.10
2023-01-29T01:15:25.887Z,12.90
2023-01-29T01:17:55.230Z,14.07
2023-01-29T01:20:24.142Z,11.50
2023-01-29T01:22:52.450Z,13.02
2023-01-29T01:25:21.362Z,11.10
2023-01-29T01:27:49.541Z,11.75
2023-01-29T01:30:19.761Z,14.00
2023-01-29T01:32:47.903Z,12.85
2023-01-29T01:35:16.401Z,12.75
2023-01-29T01:37:44.731Z,10.88
2023-01-29T01:40:18.638Z,11.63
2023-01-29T01:42:49.966Z,11.52
2023-01-29T01:45:34.356Z,12.77
2023-01-29T01:48:05.806Z,12.52
2023-01-29T01:50:40.469Z,12.18
2023-01-29T01:53:12.053Z,13.48
2023-01-29T01:55:44.477Z,12.98
2023-01-29T01:58:17.181Z,10.88
2023-01-29T02:00:46.728Z,11.65
2023-01-29T02:03:32.356Z,11.85
2023-01-29T02:06:19.036Z,12.30
2023-01-29T02:09:11.178Z,11.00
2023-01-29T02:11:39.397Z,11.23
2023-01-29T02:14:08.198Z,11.55
2023-01-29T02:16:38.734Z,10.38
2023-01-29T02:19:12.777Z,11.35
2023-01-29T02:22:01.118Z,10.45
2023-01-29T02:25:09.942Z,11.20
2023-01-29T02:28:01.765Z,10.68
2023-01-29T02:30:35.162Z,10.75
2023-01-29T02:33:11.364Z,11.82
2023-01-29T02:35:44.841Z,12.02
2023-01-29T02:38:19.203Z,11.27
2023-01-29T02:40:55.173Z,11.07
2023-01-29T02:43:32.435Z,15.43
2023-01-29T02:46:06.845Z,13.88
2023-01-29T02:48:43.116Z,12.05
2023-01-29T02:51:19.951Z,11.68
2023-01-29T02:53:57.072Z,12.35
2023-01-29T02:56:30.224Z,14.45
2023-01-29T02:59:06.327Z,13.45
2023-01-29T03:01:40.928Z,12.70
2023-01-29T03:04:14.518Z,13.02
2023-01-29T03:06:46.311Z,12.70
2023-01-29T03:09:18.039Z,18.63
2023-01-29T03:11:51.711Z,16.50
2023-01-29T03:14:26.783Z,14.07
2023-01-29T03:16:55.579Z,13.25
2023-01-29T03:19:29.742Z,15.07
2023-01-29T03:22:00.176Z,9.82
2023-01-29T03:24:53.483Z,12.38
2023-01-29T03:27:43.919Z,9.80
2023-01-29T03:30:35.481Z,10.15
2023-01-29T03:33:07.645Z,11.23
2023-01-29T03:35:40.168Z,11.02
2023-01-29T03:38:11.232Z,14.40
2023-01-29T03:40:46.305Z,10.93
2023-01-29T03:43:21.587Z,13.23
2023-01-29T03:46:00.008Z,9.90
2023-01-29T03:48:36.505Z,13.02
2023-01-29T03:51:16.228Z,9.75
2023-01-29T03:53:49.082Z,11.40
2023-01-29T03:56:33.065Z,11.00
2023-01-29T03:59:04.841Z,10.57
2023-01-29T04:01:43.781Z,13.20
2023-01-29T04:04:15.751Z,9.18
2023-01-29T04:06:46.860Z,10.20
2023-01-29T04:09:22.204Z,9.70
2023-01-29T04:11:56.200Z,8.98
2023-01-29T04:14:25.559Z,9.45
2023-01-29T04:16:59.072Z,9.35
2023-01-29T04:19:28.098Z,8.93
2023-01-29T04:22:05.074Z,9.13
2023-01-29T04:24:33.684Z,8.65
2023-01-29T04:27:17.653Z,9.82
2023-01-29T04:29:58.617Z,8.88
2023-01-29T04:32:38.994Z,9.02
2023-01-29T04:35:16.785Z,10.63
2023-01-29T04:37:50.631Z,10.93
2023-01-29T04:40:24.428Z,10.50
2023-01-29T04:43:01.755Z,10.23
2023-01-29T04:45:37.995Z,8.48
2023-01-29T04:48:18.755Z,8.55
2023-01-29T04:50:54.321Z,10.45
2023-01-29T04:53:30.283Z,10.27
2023-01-29T04:56:07.286Z,9.15
2023-01-29T04:58:40.800Z,9.70
2023-01-29T05:01:12.564Z,10.77
2023-01-29T05:03:44.264Z,10.30
2023-01-29T05:06:13.448Z,10.18
2023-01-29T05:08:42.745Z,9.23
2023-01-29T05:11:12.305Z,10.18
2023-01-29T05:13:42.137Z,8.88
2023-01-29T05:16:15.889Z,10.65
2023-01-29T05:18:45.359Z,11.77
2023-01-29T05:21:13.502Z,11.40
2023-01-29T05:23:59.499Z,11.07
2023-01-29T05:26:46.241Z,9.43
2023-01-29T05:29:14.701Z,9.77
2023-01-29T05:31:45.482Z,9.98
2023-01-29T05:34:14.839Z,10.00
2023-01-29T05:36:42.941Z,10.25
2023-01-29T05:39:10.986Z,10.65
2023-01-29T05:41:39.059Z,9.88
2023-01-29T05:44:07.626Z,11.52
2023-01-29T05:46:35.686Z,11.15
2023-01-29T05:49:04.002Z,9.93
2023-01-29T05:51:33.870Z,12.27
2023-01-29T05:54:03.251Z,11.93
2023-01-29T05:56:32.834Z,10.35
2023-01-29T05:59:01.105Z,11.23
2023-01-29T06:01:29.571Z,12.18
2023-01-29T06:03:57.946Z,12.10
2023-01-29T06:06:26.299Z,11.50
2023-01-29T06:08:57.185Z,11.98
2023-01-29T06:11:25.574Z,11.13
2023-01-29T06:13:53.751Z,12.50
2023-01-29T06:16:22.411Z,11.52
2023-01-29T06:18:50.555Z,11.82
2023-01-29T06:21:20.131Z,12.70
2023-01-29T06:23:48.510Z,17.80
2023-01-29T06:26:18.039Z,14.63
2023-01-29T06:28:49.357Z,12.23
2023-01-29T06:31:37.879Z,12.73
2023-01-29T06:34:07.326Z,13.95
2023-01-29T06:36:35.888Z,12.88
2023-01-29T06:39:04.519Z,15.82
2023-01-29T06:41:34.258Z,11.52
2023-01-29T06:44:02.802Z,12.45
2023-01-29T06:46:31.180Z,13.73
2023-01-29T06:49:01.300Z,13.93
2023-01-29T06:51:29.709Z,14.25
2023-01-29T06:53:58.007Z,14.52
2023-01-29T06:56:26.416Z,13.15
2023-01-29T06:58:56.054Z,14.48
2023-01-29T07:01:35.689Z,16.02
2023-01-29T07:04:04.601Z,14.35
2023-01-29T07:06:33.505Z,15.88
2023-01-29T07:09:01.673Z,14.02
2023-01-29T07:11:29.960Z,15.88
2023-01-29T07:13:59.747Z,15.65
2023-01-29T07:16:28.013Z,16.70
2023-01-29T07:18:56.192Z,17.80
2023-01-29T07:21:24.474Z,17.33
2023-01-29T07:23:52.575Z,16.20
2023-01-29T07:26:20.800Z,26.48
2023-01-29T07:28:49.139Z,22.67
2023-01-29T07:31:18.836Z,21.90
2023-01-29T07:33:47.408Z,27.02
2023-01-29T07:36:17.218Z,26.60
2023-01-29T07:38:45.437Z,26.60
2023-01-29T07:41:13.757Z,24.45
2023-01-29T07:43:41.791Z,19.73
2023-01-29T07:46:10.658Z,21.08
2023-01-29T07:48:40.446Z,21.52
2023-01-29T07:51:08.473Z,17.65
2023-01-29T07:53:37.189Z,19.73
2023-01-29T07:56:05.736Z,17.83
2023-01-29T07:58:36.598Z,18.77
2023-01-29T08:01:07.342Z,20.30
2023-01-29T08:03:35.760Z,19.17
2023-01-29T08:06:06.658Z,17.67
2023-01-29T08:08:34.887Z,17.88
2023-01-29T08:11:03.731Z,21.08
2023-01-29T08:13:32.218Z,19.20
2023-01-29T08:16:04.021Z,20.40
2023-01-29T08:18:32.485Z,19.73
2023-01-29T08:21:01.737Z,20.58
2023-01-29T08:23:32.101Z,24.20
2023-01-29T08:26:00.507Z,19.67
2023-01-29T08:28:28.874Z,28.00
2023-01-29T08:30:57.262Z,30.63
2023-01-29T08:33:38.090Z,25.45
2023-01-29T08:36:07.672Z,26.05
2023-01-29T08:38:37.517Z,25.52
2023-01-29T08:41:05.671Z,29.02
2023-01-29T08:43:35.264Z,26.00
2023-01-29T08:46:05.231Z,28.55
2023-01-29T08:48:33.822Z,25.77
2023-01-29T08:51:03.041Z,26.80
2023-01-29T08:53:31.495Z,32.35
2023-01-29T08:56:01.520Z,25.33
2023-01-29T08:58:29.840Z,27.60
2023-01-29T09:01:00.265Z,32.28
2023-01-29T09:03:28.461Z,29.63
2023-01-29T09:05:56.829Z,30.13
2023-01-29T09:08:25.028Z,27.70
2023-01-29T09:10:53.678Z,25.60
2023-01-29T09:13:34.889Z,28.25
2023-01-29T09:16:03.705Z,27.90
2023-01-29T09:18:32.396Z,25.13
2023-01-29T09:21:03.509Z,25.70
2023-01-29T09:23:32.060Z,26.83
2023-01-29T09:26:00.385Z,28.10
2023-01-29T09:28:30.070Z,23.75
2023-01-29T09:31:01.603Z,24.23
2023-01-29T09:33:30.981Z,24.52
2023-01-29T09:36:00.715Z,27.17
2023-01-29T09:38:29.263Z,27.10
2023-01-29T09:41:04.773Z,27.73
2023-01-29T09:43:44.112Z,27.20
2023-01-29T09:46:19.578Z,28.15
2023-01-29T09:48:49.338Z,28.35
2023-01-29T09:51:28.113Z,26.92
2023-01-29T09:54:06.900Z,29.42
2023-01-29T09:56:37.766Z,26.50
2023-01-29T09:59:07.914Z,25.35
2023-01-29T10:01:43.588Z,28.13
2023-01-29T10:04:42.896Z,27.80
2023-01-29T10:07:34.372Z,26.05
2023-01-29T10:10:18.548Z,29.02
2023-01-29T10:13:02.335Z,30.50
2023-01-29T10:15:50.533Z,28.90
2023-01-29T10:18:51.793Z,29.52
2023-01-29T10:22:11.926Z,29.58
2023-01-29T10:24:49.805Z,30.25
2023-01-29T10:27:19.987Z,25.90
2023-01-29T10:29:55.618Z,31.90
2023-01-29T10:32:36.476Z,26.50
2023-01-29T10:35:23.120Z,25.10
2023-01-29T10:37:54.574Z,27.00
2023-01-29T10:40:39.862Z,30.15
2023-01-29T10:43:20.926Z,27.77
2023-01-29T10:46:08.499Z,27.52
2023-01-29T10:48:55.521Z,28.90
2023-01-29T10:51:43.726Z,28.52
2023-01-29T10:54:41.577Z,28.50
2023-01-29T10:57:38.776Z,28.48
2023-01-29T11:00:14.338Z,26.10
2023-01-29T11:02:58.683Z,26.85
2023-01-29T11:05:44.643Z,26.10
2023-01-29T11:08:21.283Z,26.15
2023-01-29T11:11:17.315Z,28.90
2023-01-29T11:13:58.616Z,24.88
2023-01-29T11:16:41.345Z,26.33
2023-01-29T11:19:16.095Z,29.63
2023-01-29T11:22:01.324Z,25.35
2023-01-29T11:24:30.039Z,27.85
2023-01-29T11:27:11.848Z,29.83
2023-01-29T11:30:01.490Z,25.88
2023-01-29T11:32:35.320Z,27.73
2023-01-29T11:35:37.635Z,27.30
2023-01-29T11:38:26.967Z,25.45
2023-01-29T11:41:09.075Z,30.52
2023-01-29T11:43:44.208Z,24.98
2023-01-29T11:46:33.938Z,27.13
2023-01-29T11:49:20.362Z,28.30
2023-01-29T11:52:00.189Z,25.42
2023-01-29T11:54:38.344Z,26.90
2023-01-29T11:57:15.404Z,25.67
2023-01-29T11:59:49.150Z,29.15
2023-01-29T12:02:31.726Z,26.73
2023-01-29T12:05:09.652Z,28.48
2023-01-29T12:07:44.360Z,26.75
2023-01-29T12:10:36.916Z,26.85
2023-01-29T12:13:25.222Z,29.35
2023-01-29T12:16:13.764Z,28.98
2023-01-29T12:18:45.843Z,28.48
2023-01-29T12:21:23.855Z,27.00
2023-01-29T12:24:53.901Z,29.02
2023-01-29T12:27:45.471Z,28.90
2023-01-29T12:30:19.956Z,27.90
2023-01-29T12:33:21.952Z,25.00
2023-01-29T12:36:25.345Z,28.30
2023-01-29T12:40:28.005Z,27.10
2023-01-29T12:42:42.237Z,25.88
2023-01-29T12:45:19.223Z,25.55
2023-01-29T12:47:51.153Z,28.52
2023-01-29T12:50:22.575Z,28.67
2023-01-29T12:52:55.667Z,26.73
2023-01-29T12:55:26.784Z,28.17
2023-01-29T12:58:15.675Z,27.30
2023-01-29T13:00:46.960Z,27.70
2023-01-29T13:03:24.181Z,28.52
2023-01-29T13:05:55.907Z,30.20
2023-01-29T13:08:28.952Z,25.63
2023-01-29T13:11:00.969Z,23.55
2023-01-29T13:13:36.363Z,25.73
2023-01-29T13:16:08.882Z,26.70
2023-01-29T13:18:49.840Z,26.50
2023-01-29T13:21:25.120Z,24.45
2023-01-29T13:23:57.076Z,25.88
2023-01-29T13:26:26.792Z,23.63
2023-01-29T13:28:56.635Z,25.67
2023-01-29T13:31:49.345Z,27.63
2023-01-29T13:34:44.426Z,26.08
2023-01-29T13:37:40.768Z,23.77
2023-01-29T13:40:25.544Z,24.77
2023-01-29T13:43:00.243Z,23.83
2023-01-29T13:45:57.760Z,24.80
2023-01-29T13:48:47.510Z,24.48
2023-01-29T13:51:24.275Z,22.85
2023-01-29T13:54:21.532Z,26.40
2023-01-29T13:57:40.733Z,22.17
2023-01-29T14:01:03.292Z,23.77
2023-01-29T14:04:34.265Z,27.02
2023-01-29T14:07:36.850Z,24.35
2023-01-29T14:10:42.228Z,27.83
2023-01-29T14:13:40.464Z,24.20
2023-01-29T14:16:39.132Z,23.08
2023-01-29T14:19:50.409Z,23.45
2023-01-29T14:22:26.919Z,22.23
2023-01-29T14:25:00.762Z,22.60
2023-01-29T14:27:34.472Z,22.45
2023-01-29T14:30:33.154Z,23.75
2023-01-29T14:33:10.170Z,23.77
2023-01-29T14:35:54.573Z,23.05
2023-01-29T14:38:53.518Z,23.05
2023-01-29T14:41:53.135Z,23.23
2023-01-29T14:45:23.690Z,21.30
2023-01-29T14:48:33.644Z,22.70
2023-01-29T14:51:50.997Z,20.85
2023-01-29T14:54:28.932Z,21.45
2023-01-29T14:57:15.630Z,19.92
2023-01-29T14:59:52.214Z,22.15
2023-01-29T15:02:26.532Z,24.45
2023-01-29T15:05:07.331Z,21.27
2023-01-29T15:08:08.164Z,17.73
2023-01-29T15:11:38.442Z,19.23
2023-01-29T15:18:12.548Z,24.10
2023-01-29T15:20:46.899Z,18.60
2023-01-29T15:24:14.400Z,21.10
2023-01-29T15:26:57.640Z,21.17
2023-01-29T15:30:03.030Z,18.50
2023-01-29T15:32:41.367Z,19.15
2023-01-29T15:35:27.698Z,19.33
2023-01-29T15:38:18.183Z,18.88
2023-01-29T15:41:04.885Z,21.15
2023-01-29T15:43:47.172Z,17.75
2023-01-29T15:46:21.595Z,17.77
2023-01-29T15:48:52.876Z,18.00
2023-01-29T15:51:37.038Z,17.63
2023-01-29T15:54:12.380Z,18.67
2023-01-29T15:57:12.756Z,18.48
2023-01-29T15:59:51.864Z,18.58
2023-01-29T16:02:28.969Z,17.98
2023-01-29T16:05:09.099Z,18.83
2023-01-29T16:07:49.584Z,20.23
2023-01-29T16:11:13.284Z,18.20
2023-01-29T16:13:47.403Z,16.75
2023-01-29T16:16:26.514Z,19.25
2023-01-29T16:19:00.789Z,17.15
2023-01-29T16:21:34.425Z,16.77
2023-01-29T16:24:06.144Z,16.23
2023-01-29T16:26:38.164Z,19.42
2023-01-29T16:29:13.197Z,16.80
2023-01-29T16:31:50.448Z,18.73
2023-01-29T16:34:28.412Z,16.25
2023-01-29T16:36:57.632Z,18.30
2023-01-29T16:39:32.632Z,20.33
2023-01-29T16:42:28.425Z,16.85
2023-01-29T16:45:04.991Z,18.05
2023-01-29T16:47:36.259Z,17.63
2023-01-29T16:50:20.999Z,17.23
2023-01-29T16:52:58.217Z,18.40
2023-01-29T16:55:26.983Z,16.42
2023-01-29T16:57:56.474Z,18.23
2023-01-29T17:00:29.942Z,17.75
2023-01-29T17:03:04.924Z,16.30
2023-01-29T17:05:38.407Z,17.67
2023-01-29T17:08:15.880Z,18.40
2023-01-29T17:10:50.831Z,18.17
2023-01-29T17:13:25.280Z,17.33
2023-01-29T17:16:04.159Z,17.58
2023-01-29T17:18:36.656Z,16.65
2023-01-29T17:21:05.163Z,17.77
2023-01-29T17:23:36.797Z,14.65
2023-01-29T17:26:08.243Z,18.08
2023-01-29T17:28:37.782Z,15.50
2023-01-29T17:31:10.822Z,16.77
2023-01-29T17:33:50.455Z,18.38
2023-01-29T17:36:20.403Z,16.92
2023-01-29T17:38:48.763Z,17.27
2023-01-29T17:41:23.047Z,17.15
2023-01-29T17:43:54.611Z,17.65
2023-01-29T17:46:34.320Z,17.73
2023-01-29T17:49:05.223Z,18.58
2023-01-29T17:51:39.933Z,18.00
2023-01-29T17:54:08.774Z,18.00
2023-01-29T17:56:46.488Z,17.70
2023-01-29T17:59:21.826Z,17.17
2023-01-29T18:02:29.519Z,16.88
2023-01-29T18:05:10.087Z,17.40
2023-01-29T18:07:39.460Z,16.52
2023-01-29T18:10:12.765Z,15.60
2023-01-29T18:12:42.474Z,14.93
2023-01-29T18:15:11.592Z,17.25
2023-01-29T18:17:43.392Z,16.85
2023-01-29T18:20:20.274Z,16.83
2023-01-29T18:22:49.272Z,19.33
2023-01-29T18:25:17.819Z,17.00
2023-01-29T18:27:46.734Z,17.52
2023-01-29T18:30:15.942Z,19.67
2023-01-29T18:32:47.458Z,16.92
2023-01-29T18:35:16.547Z,15.82
2023-01-29T18:37:45.196Z,16.38
2023-01-29T18:40:17.272Z,16.15
2023-01-29T18:42:46.331Z,15.57
2023-01-29T18:45:16.054Z,17.45
2023-01-29T18:47:51.810Z,19.52
2023-01-29T18:50:20.406Z,18.38
2023-01-29T18:52:51.907Z,19.85
2023-01-29T18:55:22.276Z,18.15
2023-01-29T18:58:25.254Z,16.63
2023-01-29T19:00:44.031Z,17.50
2023-01-29T19:03:17.159Z,19.30
2023-01-29T19:05:56.869Z,16.40
2023-01-29T19:08:25.218Z,16.20
2023-01-29T19:11:02.454Z,16.83
2023-01-29T19:13:33.000Z,17.52
2023-01-29T19:16:02.422Z,19.23
2023-01-29T19:18:36.762Z,18.67
2023-01-29T19:21:09.273Z,16.55
2023-01-29T19:23:38.169Z,17.23
2023-01-29T19:26:09.418Z,17.20
2023-01-29T19:28:38.385Z,16.98
2023-01-29T19:31:09.344Z,18.42
2023-01-29T19:33:40.488Z,16.48
2023-01-29T19:36:09.805Z,16.13
2023-01-29T19:38:39.086Z,17.75
2023-01-29T19:41:07.985Z,17.05
2023-01-29T19:43:38.194Z,17.98
2023-01-29T19:46:07.647Z,17.15
2023-01-29T19:48:39.715Z,14.93
2023-01-29T19:51:10.456Z,20.02
2023-01-29T19:53:40.147Z,16.83
2023-01-29T19:56:15.278Z,17.13
2023-01-29T19:58:49.708Z,15.95
2023-01-29T20:01:56.967Z,17.02
2023-01-29T20:04:40.160Z,15.23
2023-01-29T20:07:15.556Z,17.13
2023-01-29T20:10:38.680Z,16.33
2023-01-29T20:13:06.925Z,16.25
2023-01-29T20:15:43.189Z,16.33
2023-01-29T20:18:17.922Z,14.88
2023-01-29T20:20:53.464Z,16.98
2023-01-29T20:23:37.219Z,17.70
2023-01-29T20:26:19.423Z,16.23
2023-01-29T20:28:48.767Z,15.98
2023-01-29T20:34:10.288Z,17.20
2023-01-29T20:36:41.456Z,17.75
2023-01-29T20:39:12.036Z,16.52
2023-01-29T20:41:48.341Z,17.23
2023-01-29T20:44:49.908Z,16.98
2023-01-29T20:47:41.867Z,17.48
2023-01-29T20:50:14.731Z,18.50
2023-01-29T20:52:48.860Z,16.60
2023-01-29T20:55:19.678Z,20.20
2023-01-29T20:58:06.028Z,19.83
2023-01-29T21:00:41.382Z,19.05
2023-01-29T21:03:09.782Z,21.20
2023-01-29T21:05:37.915Z,20.17
2023-01-29T21:08:18.030Z,19.38
2023-01-29T21:10:50.908Z,21.00
2023-01-29T21:13:21.797Z,20.67
2023-01-29T21:15:51.604Z,19.98
2023-01-29T21:18:21.017Z,21.40
2023-01-29T21:21:02.719Z,20.42
2023-01-29T21:23:32.607Z,21.10
2023-01-29T21:26:04.574Z,20.67
2023-01-29T21:28:36.286Z,18.50
2023-01-29T21:31:05.699Z,21.25
2023-01-29T21:33:35.103Z,22.50
2023-01-29T21:36:10.024Z,20.15
2023-01-29T21:38:47.678Z,19.98
2023-01-29T21:41:16.338Z,22.58
2023-01-29T21:43:46.272Z,23.83
2023-01-29T21:46:16.998Z,23.08
2023-01-29T21:48:45.321Z,20.70
2023-01-29T21:51:13.680Z,18.75
2023-01-29T21:53:43.312Z,20.67
2023-01-29T21:56:19.542Z,20.67
2023-01-29T21:58:48.993Z,21.42
2023-01-29T22:01:37.617Z,20.15
2023-01-29T22:04:07.649Z,20.98
2023-01-29T22:06:35.944Z,22.90
2023-01-29T22:09:05.611Z,21.60
2023-01-29T22:11:34.352Z,20.85
2023-01-29T22:14:02.656Z,20.77
2023-01-29T22:16:33.702Z,20.38
2023-01-29T22:19:02.358Z,20.83
2023-01-29T22:21:30.618Z,20.90
2023-01-29T22:23:58.690Z,20.77
2023-01-29T22:26:29.695Z,20.67
2023-01-29T22:28:59.326Z,22.83
2023-01-29T22:31:27.913Z,20.83
2023-01-29T22:33:56.413Z,22.38
2023-01-29T22:36:27.105Z,21.40
2023-01-29T22:38:55.291Z,22.75
2023-01-29T22:41:23.636Z,24.75
2023-01-29T22:43:56.333Z,21.85
2023-01-29T22:46:25.923Z,20.77
2023-01-29T22:48:59.266Z,20.17
2023-01-29T22:51:27.522Z,23.13
2023-01-29T22:53:57.681Z,20.48
2023-01-29T22:56:29.565Z,20.80
2023-01-29T22:59:00.744Z,20.55
2023-01-29T23:01:30.224Z,23.50
2023-01-29T23:03:58.703Z,19.73
2023-01-29T23:06:28.586Z,21.33
2023-01-29T23:08:56.879Z,22.30
2023-01-29T23:11:25.364Z,24.42
2023-01-29T23:13:55.200Z,21.17
2023-01-29T23:16:28.492Z,21.80
2023-01-29T23:18:57.698Z,21.45
2023-01-29T23:21:27.607Z,22.15
2023-01-29T23:23:58.459Z,21.30
2023-01-29T23:26:44.897Z,24.00
2023-01-29T23:29:16.749Z,21.00
2023-01-29T23:31:47.657Z,21.73
2023-01-29T23:34:16.309Z,23.58
2023-01-29T23:36:46.624Z,22.92
2023-01-29T23:39:16.446Z,19.38
2023-01-29T23:41:45.285Z,22.95
2023-01-29T23:44:14.003Z,21.35
2023-01-29T23:46:43.842Z,21.83
2023-01-29T23:49:13.530Z,21.77
2023-01-29T23:51:41.755Z,20.85
2023-01-29T23:54:10.344Z,21.95
2023-01-29T23:56:40.125Z,22.17
2023-01-29T23:59:18.618Z,20.45
